»·PEaware :: SWA1552 KABQ-KSAN

SWA1552 :: KABQ-KSAN

FLIGHT INFORMATION

Flight Status: Arrived
Operator:
Southwest Airlines
More flights by this operator :: More flights under this callsign
Pilot: Anonymous 15267 (15267)
Aircraft: BOEING 737-800
(B738)
More flights by this aircraft type
Origin: KABQ Albuquerque Intl Sunport
United States
Destination: KSAN San Diego Intl-Lindbergh
United States
More flights between these airports :: More routes between these airports
Route: BOSQE3 SJN J18 HOGGZ LUCKI1
File this flight plan on PilotEdge
Remarks: PBN / A1B1C1D1S1S2 NAV / RNVD1E2A1 DAT / VM DOF / 190206 REG / N806SB EET / KZLA0110 OPR / SWA RVR / 200 RMK / TCAS SIMBRIEF
Altitude:
(Current/Filed)
36,000ft
Speed:
(Current/Filed)
450kts
Departed: 06-Feb-19 02:00 PM
Arrived: 06-Feb-19 03:46 PM
Distance/Time
Traveled:
545nm/1:46
Distance/Time
To Go:
Arrived

Flight Plot

Page will automatically refresh every two minutes.

Flight plan parsing failed; only flown route is shown


Map Options




Map Legend


Flown Route
Filed Route
Departure Airport
Arrival Airport
Navaid (VOR, NDB)
Fix

Horizontal Profiles

Position Reports

Time Latitude Longitude Heading Altitude Ground
Speed
06-Feb-19 13:11 35.047488 -106.618833 109 5322ft 0kts
06-Feb-19 13:12 35.047488 -106.618833 109 5322ft 0kts
06-Feb-19 13:13 35.047488 -106.618833 109 5322ft 0kts
06-Feb-19 13:14 35.047488 -106.618833 109 5322ft 0kts
06-Feb-19 13:15 35.047488 -106.618833 109 5322ft 0kts
06-Feb-19 13:16 35.047488 -106.618833 109 5322ft 0kts
06-Feb-19 13:17 35.047488 -106.618833 109 5322ft 0kts
06-Feb-19 13:18 35.047488 -106.618833 109 5322ft 0kts
06-Feb-19 13:19 35.047488 -106.618833 109 5322ft 0kts
06-Feb-19 13:20 35.047488 -106.618833 109 5322ft 0kts
06-Feb-19 13:21 35.047488 -106.618833 109 5322ft 0kts
06-Feb-19 13:22 35.047488 -106.618833 109 5322ft 0kts
06-Feb-19 13:23 35.047488 -106.618833 109 5322ft 0kts
06-Feb-19 13:24 35.047488 -106.618833 109 5322ft 0kts
06-Feb-19 13:25 35.047488 -106.618833 109 5322ft 0kts
06-Feb-19 13:26 35.047488 -106.618833 109 5322ft 0kts
06-Feb-19 13:27 35.047488 -106.618833 109 5322ft 0kts
06-Feb-19 13:28 35.047488 -106.618833 109 5322ft 0kts
06-Feb-19 13:29 35.047488 -106.618833 109 5322ft 0kts
06-Feb-19 13:30 35.047488 -106.618833 109 5322ft 0kts
06-Feb-19 13:31 35.047488 -106.618833 109 5322ft 0kts
06-Feb-19 13:32 35.047488 -106.618833 109 5322ft 0kts
06-Feb-19 13:33 35.047488 -106.618833 109 5322ft 0kts
06-Feb-19 13:34 35.047488 -106.618833 109 5322ft 0kts
06-Feb-19 13:35 35.047488 -106.618833 109 5322ft 0kts
06-Feb-19 13:36 35.047488 -106.618833 109 5322ft 0kts
06-Feb-19 13:37 35.047488 -106.618833 109 5322ft 0kts
06-Feb-19 13:38 35.047541 -106.619009 109 5323ft 2kts
06-Feb-19 13:39 35.047797 -106.619592 178 5323ft 0kts
06-Feb-19 13:40 35.046855 -106.619579 180 5323ft 0kts
06-Feb-19 13:41 35.046855 -106.619579 180 5322ft 0kts
06-Feb-19 13:42 35.046855 -106.619579 180 5322ft 0kts
06-Feb-19 13:43 35.046855 -106.619579 180 5322ft 0kts
06-Feb-19 13:44 35.046855 -106.619579 180 5322ft 0kts
06-Feb-19 13:45 35.045670 -106.619481 148 5322ft 0kts
06-Feb-19 13:46 35.045646 -106.619468 155 5322ft 0kts
06-Feb-19 13:47 35.045588 -106.619438 158 5322ft 0kts
06-Feb-19 13:48 35.045570 -106.619431 162 5322ft 0kts
06-Feb-19 13:49 35.045538 -106.619421 163 5322ft 2kts
06-Feb-19 13:50 35.045482 -106.619402 169 5322ft 0kts
06-Feb-19 13:51 35.045477 -106.619619 10 5322ft 2kts
06-Feb-19 13:52 35.045626 -106.618637 91 5322ft 0kts
06-Feb-19 13:53 35.045602 -106.618020 92 5322ft 9kts
06-Feb-19 13:54 35.045583 -106.614099 82 5322ft 7kts
06-Feb-19 13:55 35.045834 -106.612337 90 5322ft 9kts
06-Feb-19 13:56 35.043882 -106.610582 183 5322ft 18kts
06-Feb-19 13:57 35.042423 -106.609146 90 5322ft 1kts
06-Feb-19 13:58 35.042432 -106.608632 87 5322ft 2kts
06-Feb-19 13:59 35.040437 -106.608615 226 5323ft 48kts
06-Feb-19 14:00 35.014749 -106.638853 228 5922ft 173kts
06-Feb-19 14:01 34.974144 -106.685157 223 7982ft 232kts
06-Feb-19 14:02 34.922507 -106.743444 217 9057ft 265kts
06-Feb-19 14:03 34.859388 -106.795916 216 12107ft 290kts
06-Feb-19 14:04 34.796744 -106.857773 221 15493ft 290kts
06-Feb-19 14:05 34.734660 -106.921118 222 17016ft 296kts
06-Feb-19 14:06 34.671833 -106.984366 222 20015ft 296kts
06-Feb-19 14:07 34.609496 -107.050395 233 22755ft 299kts
06-Feb-19 14:08 34.578751 -107.145968 248 25331ft 310kts
06-Feb-19 14:09 34.553464 -107.247603 249 27546ft 320kts
06-Feb-19 14:10 34.527223 -107.352799 249 29580ft 330kts
06-Feb-19 14:11 34.500233 -107.460698 249 31604ft 334kts
06-Feb-19 14:12 34.473438 -107.567541 249 33702ft 328kts
06-Feb-19 14:13 34.446884 -107.672849 248 35398ft 326kts
06-Feb-19 14:14 34.432794 -107.785600 262 35792ft 348kts
06-Feb-19 14:15 34.432563 -107.902745 262 35790ft 348kts
06-Feb-19 14:16 34.432287 -108.016778 262 35787ft 349kts
06-Feb-19 14:17 34.431914 -108.135086 262 35817ft 349kts
06-Feb-19 14:18 34.431458 -108.252953 262 35846ft 350kts
06-Feb-19 14:19 34.430905 -108.371270 262 35845ft 351kts
06-Feb-19 14:21 34.430271 -108.489678 262 35843ft 351kts
06-Feb-19 14:22 34.429537 -108.608278 262 35841ft 352kts
06-Feb-19 14:23 34.428584 -108.726143 262 35858ft 353kts
06-Feb-19 14:24 34.427414 -108.845600 262 35855ft 352kts
06-Feb-19 14:25 34.426171 -108.964068 262 35854ft 354kts
06-Feb-19 14:26 34.424852 -109.083310 262 35855ft 352kts
06-Feb-19 14:27 34.405793 -109.197386 246 35857ft 345kts
06-Feb-19 14:28 34.369846 -109.304660 246 35855ft 344kts
06-Feb-19 14:29 34.333773 -109.411860 246 35852ft 344kts
06-Feb-19 14:30 34.297585 -109.519103 246 35850ft 344kts
06-Feb-19 14:31 34.261397 -109.626025 246 35847ft 344kts
06-Feb-19 14:32 34.226573 -109.728097 245 35864ft 343kts
06-Feb-19 14:33 34.190145 -109.834308 246 35862ft 343kts
06-Feb-19 14:34 34.153424 -109.941138 246 35864ft 343kts
06-Feb-19 14:35 34.116648 -110.047876 246 35891ft 343kts
06-Feb-19 14:36 34.079794 -110.154571 246 35921ft 343kts
06-Feb-19 14:36 34.049110 -110.243193 246 35926ft 345kts
06-Feb-19 14:38 34.005931 -110.367569 246 35922ft 344kts
06-Feb-19 14:39 33.968978 -110.473693 246 35920ft 343kts
06-Feb-19 14:40 33.931828 -110.580055 246 35917ft 343kts
06-Feb-19 14:40 33.901785 -110.665782 245 35933ft 343kts
06-Feb-19 14:41 33.864318 -110.771703 245 35945ft 343kts
06-Feb-19 14:43 33.820785 -110.894512 245 35943ft 343kts
06-Feb-19 14:43 33.789588 -110.982328 245 35983ft 344kts
06-Feb-19 14:44 33.751999 -111.087915 245 36033ft 344kts
06-Feb-19 14:45 33.714265 -111.193645 246 36053ft 345kts
06-Feb-19 14:47 33.670259 -111.316612 246 36050ft 345kts
06-Feb-19 14:47 33.638555 -111.404960 246 36048ft 346kts
06-Feb-19 14:48 33.600424 -111.510945 246 36046ft 345kts
06-Feb-19 14:49 33.562228 -111.616784 246 36047ft 347kts
06-Feb-19 14:50 33.523596 -111.723090 245 36068ft 347kts
06-Feb-19 14:51 33.485010 -111.828734 245 36070ft 346kts
06-Feb-19 14:52 33.446384 -111.934296 245 36075ft 346kts
06-Feb-19 14:53 33.393361 -112.030713 234 36080ft 352kts
06-Feb-19 14:54 33.332014 -112.121586 234 36078ft 351kts
06-Feb-19 14:55 33.270717 -112.212335 234 36076ft 351kts
06-Feb-19 14:56 33.209300 -112.303128 234 36073ft 349kts
06-Feb-19 14:57 33.147958 -112.393652 234 36071ft 350kts
06-Feb-19 14:58 33.086587 -112.484034 234 36068ft 350kts
06-Feb-19 14:59 33.025224 -112.574210 234 36066ft 350kts
06-Feb-19 15:00 32.966545 -112.666086 244 36090ft 347kts
06-Feb-19 15:01 32.942684 -112.777716 257 36081ft 350kts
06-Feb-19 15:02 32.927166 -112.892121 257 36082ft 350kts
06-Feb-19 15:03 32.911551 -113.006758 257 36083ft 350kts
06-Feb-19 15:04 32.895906 -113.121074 258 36093ft 352kts
06-Feb-19 15:05 32.880107 -113.235897 258 36090ft 351kts
06-Feb-19 15:06 32.864276 -113.350340 258 36087ft 351kts
06-Feb-19 15:07 32.848281 -113.465283 258 36085ft 352kts
06-Feb-19 15:08 32.832249 -113.579798 258 36083ft 352kts
06-Feb-19 15:09 32.816038 -113.694430 257 36099ft 352kts
06-Feb-19 15:10 32.799567 -113.809069 257 36098ft 352kts
06-Feb-19 15:11 32.783068 -113.923481 258 36095ft 352kts
06-Feb-19 15:12 32.774563 -114.039973 266 36096ft 358kts
06-Feb-19 15:13 32.777760 -114.158373 269 36101ft 359kts
06-Feb-19 15:14 32.782866 -114.277896 269 36106ft 360kts
06-Feb-19 15:15 32.790274 -114.396696 278 36111ft 366kts
06-Feb-19 15:16 32.821929 -114.513144 282 36102ft 371kts
06-Feb-19 15:17 32.854173 -114.629690 282 36100ft 370kts
06-Feb-19 15:18 32.878156 -114.747981 267 36121ft 362kts
06-Feb-19 15:19 32.876019 -114.868303 265 36114ft 367kts
06-Feb-19 15:20 32.873271 -114.989898 266 35847ft 369kts
06-Feb-19 15:21 32.870428 -115.111723 266 34599ft 372kts
06-Feb-19 15:22 32.867416 -115.236353 267 31258ft 376kts
06-Feb-19 15:23 32.863102 -115.358510 263 28599ft 360kts
06-Feb-19 15:24 32.846835 -115.475769 262 26336ft 368kts
06-Feb-19 15:25 32.827834 -115.593870 261 25972ft 360kts
06-Feb-19 15:26 32.810175 -115.700267 262 23970ft 337kts
06-Feb-19 15:27 32.791876 -115.810387 262 21784ft 348kts
06-Feb-19 15:28 32.779437 -115.920419 268 19645ft 325kts
06-Feb-19 15:29 32.771564 -116.027027 269 17487ft 340kts
06-Feb-19 15:30 32.763268 -116.136657 269 15339ft 321kts
06-Feb-19 15:31 32.755383 -116.239408 269 13638ft 297kts
06-Feb-19 15:32 32.748210 -116.331793 270 12429ft 272kts
06-Feb-19 15:33 32.741351 -116.421063 269 10927ft 283kts
06-Feb-19 15:34 32.734355 -116.509514 267 10018ft 255kts
06-Feb-19 15:35 32.726500 -116.591539 266 8914ft 243kts
06-Feb-19 15:36 32.718986 -116.669910 266 7900ft 251kts
06-Feb-19 15:37 32.712506 -116.751648 266 6842ft 242kts
06-Feb-19 15:38 32.703806 -116.831929 253 5716ft 262kts
06-Feb-19 15:39 32.678637 -116.913645 253 4986ft 245kts
06-Feb-19 15:40 32.684405 -116.988109 287 4200ft 217kts
06-Feb-19 15:41 32.698995 -117.047723 287 3292ft 157kts
06-Feb-19 15:42 32.709848 -117.092629 286 1891ft 132kts
06-Feb-19 15:43 32.720086 -117.135370 289 1025ft 138kts
06-Feb-19 15:44 32.730830 -117.178644 289 112ft 137kts
06-Feb-19 15:45 32.735176 -117.197974 255 25ft 10kts
06-Feb-19 15:46 32.734201 -117.197069 150 25ft 12kts
06-Feb-19 15:47 32.733365 -117.197666 279 25ft 1kts
06-Feb-19 15:48 32.733376 -117.197740 280 25ft 0kts
06-Feb-19 15:49 32.733376 -117.197740 280 25ft 0kts
06-Feb-19 15:50 32.733376 -117.197740 280 25ft 0kts

Navigation Log

Ident Type
Flight plan parsing failed, navigation log unavailable